Time;durP1;ratioP1;P1;durP2;ratioP2;P2;SDS_P1;SDS_P2;PMS_P1;PMS_P2;Temp;Humidity;BMP_temperature;BMP_pressure;BME280_temperature;BME280_humidity;BME280_pressure;Samples;Min_cycle;Max_cycle;Signal;HPM_P1;HPM_P2
2023/05/25 00:56:21;;;;;;;8.90;4.07;;;13.00;99.90;;;;;;6286871;22;20489;-90
2023/05/25 04:47:11;;;;;;;15.40;5.83;;;11.60;99.90;;;;;;6260848;22;20438;-93
2023/05/25 04:49:40;;;;;;;17.98;6.38;;;11.60;99.90;;;;;;6184040;23;20036;-90
2023/05/25 04:52:06;;;;;;;20.98;5.75;;;11.60;99.90;;;;;;6160276;23;20024;-88
2023/05/25 04:54:35;;;;;;;12.45;5.22;;;11.60;99.90;;;;;;6158780;23;20037;-90
2023/05/25 04:57:03;;;;;;;12.27;5.63;;;11.70;99.90;;;;;;6168829;23;20328;-89
2023/05/25 04:59:32;;;;;;;16.40;6.13;;;11.70;99.90;;;;;;6183584;23;20029;-90
2023/05/25 05:01:58;;;;;;;17.67;5.82;;;11.70;99.90;;;;;;6158768;23;20032;-90
2023/05/25 05:04:25;;;;;;;14.90;6.35;;;11.70;99.90;;;;;;6159695;23;20037;-90
2023/05/25 05:06:53;;;;;;;13.25;6.35;;;11.70;99.90;;;;;;6158713;23;20012;-90
2023/05/25 05:09:26;;;;;;;12.82;6.03;;;11.70;99.90;;;;;;6158670;23;20008;-90
2023/05/25 05:12:12;;;;;;;10.38;5.43;;;11.80;99.90;;;;;;6159060;23;20009;-90
2023/05/25 05:14:37;;;;;;;12.55;5.30;;;11.80;99.90;;;;;;6183444;23;20011;-89
2023/05/25 05:17:03;;;;;;;14.13;5.72;;;11.90;99.90;;;;;;6140993;23;20009;-89
2023/05/25 05:19:32;;;;;;;15.50;5.85;;;11.90;99.90;;;;;;6159719;23;20008;-90
2023/05/25 05:22:00;;;;;;;17.85;6.20;;;11.90;99.90;;;;;;6158096;23;20036;-90
2023/05/25 05:24:26;;;;;;;14.80;5.93;;;12.00;99.90;;;;;;6162104;23;20005;-89
2023/05/25 05:26:57;;;;;;;17.63;6.97;;;12.00;99.90;;;;;;6160304;23;20092;-90
2023/05/25 05:29:30;;;;;;;15.20;6.32;;;12.00;99.90;;;;;;6160509;23;20084;-90
2023/05/25 05:31:56;;;;;;;14.20;5.78;;;12.10;99.90;;;;;;6159498;23;20006;-90
2023/05/25 05:34:21;;;;;;;14.60;6.32;;;12.10;99.90;;;;;;6158991;23;20420;-91
2023/05/25 05:36:52;;;;;;;12.82;6.15;;;12.10;99.90;;;;;;6157620;23;20005;-90
2023/05/25 05:39:20;;;;;;;14.13;6.25;;;12.20;99.90;;;;;;6157881;23;20005;-90
2023/05/25 05:41:46;;;;;;;15.85;6.20;;;12.20;99.90;;;;;;6158512;23;20012;-92
2023/05/25 05:44:11;;;;;;;11.75;5.57;;;12.20;99.90;;;;;;6157092;23;20073;-91
2023/05/25 05:49:59;;;;;;;16.15;7.15;;;12.30;99.90;;;;;;6188249;23;20051;-90
2023/05/25 05:52:30;;;;;;;17.05;6.70;;;12.30;99.90;;;;;;6138472;23;20091;-90
2023/05/25 05:54:58;;;;;;;14.48;6.43;;;12.40;99.90;;;;;;6187913;23;20478;-90
2023/05/25 05:57:23;;;;;;;13.18;6.28;;;12.40;99.90;;;;;;6190527;23;20012;-90
2023/05/25 05:59:51;;;;;;;13.30;5.50;;;12.40;99.90;;;;;;6190840;23;20005;-92
2023/05/25 06:02:20;;;;;;;12.00;5.90;;;12.50;99.90;;;;;;6187900;23;20068;-91
2023/05/25 06:04:51;;;;;;;13.77;6.15;;;12.50;99.90;;;;;;6163154;23;20147;-90
2023/05/25 06:07:17;;;;;;;15.35;6.10;;;12.60;99.90;;;;;;6188009;23;20009;-91
2023/05/25 06:09:43;;;;;;;14.40;6.25;;;12.60;99.90;;;;;;6140000;23;20481;-91
2023/05/25 06:12:09;;;;;;;14.23;5.82;;;12.70;99.90;;;;;;6198133;23;20049;-92
2023/05/25 06:14:37;;;;;;;14.65;5.85;;;12.70;99.90;;;;;;6212427;23;19989;-92
2023/05/25 06:17:03;;;;;;;14.43;6.28;;;12.70;99.90;;;;;;6213324;23;20012;-95
2023/05/25 06:19:29;;;;;;;18.08;7.03;;;12.80;99.90;;;;;;6212671;23;19985;-91
2023/05/25 06:21:55;;;;;;;18.70;7.10;;;12.80;99.90;;;;;;6162506;23;20050;-90
2023/05/25 06:24:30;;;;;;;16.63;7.00;;;12.90;99.90;;;;;;6212964;23;20005;-89
2023/05/25 06:27:16;;;;;;;16.25;6.30;;;12.90;99.90;;;;;;6211082;23;20016;-90
2023/05/25 06:29:42;;;;;;;14.63;6.68;;;13.00;99.90;;;;;;6205667;23;20009;-90
2023/05/25 06:32:09;;;;;;;15.65;6.60;;;13.00;99.90;;;;;;6138510;23;20092;-89
2023/05/25 06:34:36;;;;;;;19.13;6.63;;;13.00;99.90;;;;;;6187310;23;20403;-89
2023/05/25 06:37:04;;;;;;;16.92;6.43;;;13.10;99.90;;;;;;6186335;23;20001;-89
2023/05/25 06:39:29;;;;;;;15.95;5.88;;;13.10;99.90;;;;;;6187319;23;20005;-89
2023/05/25 06:41:55;;;;;;;17.08;6.43;;;13.20;99.90;;;;;;6162190;23;20009;-90
2023/05/25 06:44:21;;;;;;;14.40;5.57;;;13.20;99.90;;;;;;6186754;23;20005;-90
2023/05/25 06:46:47;;;;;;;14.25;5.28;;;13.30;99.90;;;;;;6186287;23;20482;-89
2023/05/25 06:49:12;;;;;;;12.63;5.43;;;13.30;99.90;;;;;;6161675;23;20328;-89
2023/05/25 06:51:38;;;;;;;18.48;5.65;;;13.40;99.90;;;;;;6138847;23;20073;-90
2023/05/25 06:54:05;;;;;;;15.18;4.95;;;13.40;99.90;;;;;;6151469;23;20009;-89
2023/05/25 06:56:34;;;;;;;14.02;5.32;;;13.50;99.90;;;;;;6159385;23;20068;-89
2023/05/25 06:59:00;;;;;;;13.90;5.35;;;13.50;99.90;;;;;;6209032;23;20036;-90
2023/05/25 07:01:30;;;;;;;14.13;4.95;;;13.60;99.90;;;;;;6180503;23;20021;-89
2023/05/25 07:03:55;;;;;;;13.18;5.38;;;13.60;99.90;;;;;;6201170;23;20016;-89
2023/05/25 07:06:24;;;;;;;15.73;5.05;;;13.70;99.90;;;;;;6198174;23;20005;-90
2023/05/25 07:08:49;;;;;;;11.82;4.07;;;13.70;99.90;;;;;;6195306;23;20044;-89
2023/05/25 07:11:19;;;;;;;13.95;5.00;;;13.70;99.90;;;;;;6188630;23;19997;-88
2023/05/25 07:13:47;;;;;;;15.38;4.53;;;13.80;99.90;;;;;;6163474;23;20001;-90
2023/05/25 07:16:16;;;;;;;14.68;4.72;;;13.90;99.90;;;;;;6162353;23;20009;-91
2023/05/25 07:18:42;;;;;;;13.77;4.22;;;13.90;99.90;;;;;;6162169;23;20395;-90
2023/05/25 07:21:10;;;;;;;12.65;4.65;;;14.00;99.90;;;;;;6161912;23;20001;-89
2023/05/25 07:23:37;;;;;;;12.45;4.13;;;14.00;99.90;;;;;;6187246;23;20008;-90
2023/05/25 07:26:03;;;;;;;10.82;4.50;;;14.10;99.90;;;;;;6135913;23;20428;-89
2023/05/25 07:28:30;;;;;;;13.30;4.93;;;14.10;99.90;;;;;;6137056;23;20071;-89
2023/05/25 07:31:05;;;;;;;14.15;5.10;;;14.20;99.90;;;;;;6161908;23;20083;-90
2023/05/25 07:33:31;;;;;;;15.70;4.78;;;14.30;99.90;;;;;;6185885;23;20009;-90
2023/05/25 07:35:56;;;;;;;11.98;4.65;;;14.30;99.90;;;;;;6186095;23;20434;-90
2023/05/25 07:38:22;;;;;;;12.35;4.13;;;14.30;99.90;;;;;;6164843;23;20066;-90
2023/05/25 07:40:48;;;;;;;13.13;4.88;;;14.40;99.90;;;;;;6190873;23;20008;-90
2023/05/25 07:43:17;;;;;;;14.85;5.00;;;14.40;99.90;;;;;;6191043;23;20407;-90
2023/05/25 07:45:43;;;;;;;17.48;5.40;;;14.50;99.90;;;;;;6188977;23;20022;-91
2023/05/25 07:48:11;;;;;;;12.48;4.30;;;14.50;99.90;;;;;;6165620;23;20017;-89
2023/05/25 07:50:37;;;;;;;10.20;3.70;;;14.60;99.90;;;;;;6188676;23;20071;-90
2023/05/25 07:53:03;;;;;;;15.38;4.05;;;14.60;99.90;;;;;;6188495;23;20374;-89
2023/05/25 07:55:31;;;;;;;12.85;3.67;;;14.70;99.90;;;;;;6189961;23;20006;-89
2023/05/25 07:57:57;;;;;;;10.07;3.83;;;14.70;99.90;;;;;;6164446;23;20093;-90
2023/05/25 08:00:26;;;;;;;9.80;3.50;;;14.70;99.90;;;;;;6188163;23;20166;-91
2023/05/25 08:02:52;;;;;;;10.63;3.45;;;14.80;99.90;;;;;;6164792;23;20001;-89
2023/05/25 08:05:18;;;;;;;17.45;3.95;;;14.90;99.90;;;;;;6138610;23;20055;-91
2023/05/25 08:07:45;;;;;;;13.35;3.55;;;14.90;99.90;;;;;;6190323;23;20012;-90
2023/05/25 08:10:11;;;;;;;11.93;3.80;;;15.00;99.90;;;;;;6190564;23;20044;-90
2023/05/25 08:12:37;;;;;;;12.80;3.70;;;15.00;99.90;;;;;;6189789;23;20005;-90
2023/05/25 08:15:13;;;;;;;9.48;3.50;;;15.00;99.90;;;;;;6188582;23;20084;-90
2023/05/25 08:17:40;;;;;;;13.13;3.47;;;15.10;99.90;;;;;;6189983;23;20407;-89
2023/05/25 08:20:09;;;;;;;14.10;3.90;;;15.20;99.90;;;;;;6188831;23;20001;-90
2023/05/25 08:22:35;;;;;;;12.70;3.70;;;15.20;99.90;;;;;;6188022;23;20001;-90
2023/05/25 08:25:14;;;;;;;13.43;3.30;;;15.30;99.90;;;;;;6189445;23;20336;-91
2023/05/25 08:31:03;;;;;;;11.73;3.33;;;15.40;99.90;;;;;;6190060;23;20116;-90
2023/05/25 08:36:51;;;;;;;11.68;3.53;;;15.40;99.90;;;;;;6189281;23;20012;-89
2023/05/25 08:39:37;;;;;;;14.00;4.63;;;15.50;99.90;;;;;;6187776;23;20012;-90
2023/05/25 08:42:04;;;;;;;13.05;3.85;;;15.50;99.90;;;;;;6163980;23;20005;-88
2023/05/25 08:44:29;;;;;;;10.02;3.30;;;15.50;99.90;;;;;;6139080;23;20012;-90
2023/05/25 08:46:56;;;;;;;8.75;3.45;;;15.60;99.90;;;;;;6188205;23;20088;-90
2023/05/25 08:52:45;;;;;;;10.23;3.22;;;15.70;99.90;;;;;;6190471;23;20431;-90
2023/05/25 08:55:13;;;;;;;9.60;3.67;;;15.70;99.90;;;;;;6140589;23;20452;-90
2023/05/25 08:58:02;;;;;;;12.23;3.70;;;15.80;99.90;;;;;;6140312;23;20012;-90
2023/05/25 09:00:33;;;;;;;10.48;3.38;;;15.80;99.90;;;;;;6157743;23;20024;-90
2023/05/25 09:03:10;;;;;;;9.88;3.97;;;15.80;99.90;;;;;;6188878;23;20096;-90
2023/05/25 09:05:36;;;;;;;17.40;4.32;;;15.90;99.90;;;;;;6188633;23;20001;-89
2023/05/25 09:08:09;;;;;;;14.13;4.10;;;16.00;99.90;;;;;;6163828;23;20439;-90
2023/05/25 09:10:36;;;;;;;12.57;4.30;;;16.00;99.90;;;;;;6164944;23;20400;-90
2023/05/25 09:13:03;;;;;;;12.45;4.10;;;16.10;99.90;;;;;;6163805;23;20329;-89
2023/05/25 09:15:29;;;;;;;12.13;4.40;;;16.10;99.90;;;;;;6187959;23;20074;-91
2023/05/25 09:17:55;;;;;;;13.15;3.85;;;16.10;99.90;;;;;;6187983;23;20047;-91
2023/05/25 09:20:22;;;;;;;14.10;3.97;;;16.20;99.90;;;;;;6193430;23;20029;-90
2023/05/25 09:22:48;;;;;;;9.70;3.67;;;16.30;99.90;;;;;;6192984;23;20084;-89
2023/05/25 09:25:20;;;;;;;13.65;3.78;;;16.30;99.90;;;;;;6168187;23;20016;-90
2023/05/25 09:27:46;;;;;;;12.30;4.53;;;16.30;99.90;;;;;;6193671;23;20068;-89
2023/05/25 09:30:14;;;;;;;13.68;4.22;;;16.40;99.90;;;;;;6165285;23;20005;-89
2023/05/25 09:32:42;;;;;;;13.05;4.20;;;16.40;99.90;;;;;;6188172;23;20008;-89
2023/05/25 09:35:11;;;;;;;9.57;3.85;;;16.50;99.90;;;;;;6187680;23;20023;-90
2023/05/25 09:37:37;;;;;;;11.30;3.85;;;16.50;99.90;;;;;;6188221;23;20093;-90
2023/05/25 09:40:07;;;;;;;13.43;4.03;;;16.50;99.90;;;;;;6188022;23;20015;-88
2023/05/25 09:42:34;;;;;;;10.32;3.90;;;16.60;99.90;;;;;;6188251;23;20088;-90
2023/05/25 09:45:00;;;;;;;9.82;3.35;;;16.60;99.90;;;;;;6188121;23;20089;-89
2023/05/25 09:47:34;;;;;;;11.20;3.70;;;16.60;99.90;;;;;;6189363;23;20005;-90
2023/05/25 09:53:34;;;;;;;7.63;3.35;;;16.60;99.90;;;;;;6212697;23;20020;-89
2023/05/25 09:56:00;;;;;;;13.07;3.78;;;16.70;99.90;;;;;;6188860;23;20016;-90
2023/05/25 09:58:26;;;;;;;9.07;4.03;;;16.70;99.90;;;;;;6163952;23;20004;-89
2023/05/25 10:00:55;;;;;;;10.27;3.88;;;16.70;99.90;;;;;;6188164;23;20000;-91
2023/05/25 10:03:21;;;;;;;11.07;3.97;;;16.70;99.90;;;;;;6186498;23;20049;-89
2023/05/25 10:05:47;;;;;;;12.60;4.00;;;16.70;99.90;;;;;;6160063;23;20032;-90
2023/05/25 10:08:20;;;;;;;9.32;3.40;;;16.80;99.90;;;;;;6151091;23;20005;-90
2023/05/25 10:10:50;;;;;;;11.07;4.07;;;16.80;99.90;;;;;;6142103;23;20004;-90
2023/05/25 10:13:26;;;;;;;8.23;3.40;;;16.90;99.90;;;;;;6162955;23;20009;-89
2023/05/25 10:15:53;;;;;;;6.57;3.42;;;16.90;99.90;;;;;;6187469;23;20001;-90
2023/05/25 10:18:24;;;;;;;9.57;2.78;;;17.00;99.90;;;;;;6187195;23;20001;-90
2023/05/25 10:21:00;;;;;;;9.60;3.22;;;17.10;99.90;;;;;;6187616;23;20004;-90
2023/05/25 10:23:40;;;;;;;13.85;3.67;;;17.20;99.90;;;;;;6186651;23;20004;-92
2023/05/25 10:26:07;;;;;;;7.20;3.37;;;17.30;99.90;;;;;;6187228;23;20059;-91
2023/05/25 10:28:38;;;;;;;8.63;3.28;;;17.30;99.90;;;;;;6188577;23;20005;-90
2023/05/25 10:31:09;;;;;;;9.55;2.83;;;17.40;99.90;;;;;;6163159;23;20005;-90
2023/05/25 10:33:38;;;;;;;9.48;3.05;;;17.50;99.90;;;;;;6187941;23;20316;-90
2023/05/25 10:36:06;;;;;;;10.13;3.20;;;17.50;99.90;;;;;;6193578;23;20009;-90
2023/05/25 10:38:33;;;;;;;6.00;2.53;;;17.50;99.90;;;;;;6207120;23;20470;-90
2023/05/25 10:41:03;;;;;;;7.63;2.70;;;17.50;99.90;;;;;;6209560;23;20016;-91
2023/05/25 10:43:29;;;;;;;12.90;3.55;;;17.60;99.90;;;;;;6209594;23;20001;-89
2023/05/25 10:45:55;;;;;;;7.90;3.22;;;17.50;99.90;;;;;;6179848;23;20029;-89
2023/05/25 10:48:21;;;;;;;6.68;3.08;;;17.60;99.90;;;;;;6207122;23;20052;-89
2023/05/25 10:50:50;;;;;;;8.88;3.08;;;17.60;99.90;;;;;;6203289;23;20021;-89
2023/05/25 10:53:19;;;;;;;9.30;3.13;;;17.60;99.90;;;;;;6147668;23;20001;-89
2023/05/25 10:55:51;;;;;;;8.07;2.78;;;17.70;99.90;;;;;;6194447;23;20005;-91
2023/05/25 10:58:19;;;;;;;9.07;3.45;;;17.70;99.90;;;;;;6192284;23;20030;-89
2023/05/25 11:01:05;;;;;;;7.15;2.78;;;17.70;99.90;;;;;;6198104;23;20009;-88
2023/05/25 11:03:43;;;;;;;10.77;3.10;;;17.80;99.90;;;;;;6189031;23;19997;-90
2023/05/25 11:06:20;;;;;;;7.53;2.90;;;17.80;99.90;;;;;;6186914;23;20012;-89
2023/05/25 11:09:02;;;;;;;8.68;3.00;;;17.80;99.90;;;;;;6186999;23;20029;-88
2023/05/25 11:11:47;;;;;;;6.85;2.70;;;17.90;99.90;;;;;;6138645;23;20001;-89
2023/05/25 11:14:22;;;;;;;8.27;3.00;;;17.90;99.90;;;;;;6187705;23;20001;-89
2023/05/25 11:17:14;;;;;;;6.88;2.97;;;17.90;99.90;;;;;;6189189;23;20457;-89
2023/05/25 11:19:51;;;;;;;5.30;2.50;;;17.90;99.90;;;;;;6188761;23;20085;-90
2023/05/25 11:22:21;;;;;;;8.55;2.90;;;18.00;99.90;;;;;;6188495;23;20005;-90
2023/05/25 11:24:48;;;;;;;11.23;3.20;;;18.00;99.90;;;;;;6188566;23;20027;-91
2023/05/25 11:27:20;;;;;;;7.65;3.08;;;18.00;99.90;;;;;;6188597;23;20021;-88
2023/05/25 11:29:49;;;;;;;6.60;2.40;;;18.10;99.90;;;;;;6189110;23;20001;-88
2023/05/25 11:32:15;;;;;;;8.82;2.75;;;18.10;99.90;;;;;;6189038;23;20001;-89
2023/05/25 11:34:47;;;;;;;7.82;3.10;;;18.10;99.90;;;;;;6139567;23;20096;-90
2023/05/25 11:37:19;;;;;;;9.52;3.33;;;18.20;99.90;;;;;;6188569;23;20096;-90
2023/05/25 11:39:50;;;;;;;7.88;3.35;;;18.10;99.90;;;;;;6188413;23;20029;-89
2023/05/25 11:42:19;;;;;;;8.05;3.08;;;18.10;99.90;;;;;;6188556;23;20005;-89
2023/05/25 11:44:47;;;;;;;10.02;3.33;;;18.10;99.90;;;;;;6188501;23;19997;-89
2023/05/25 11:47:17;;;;;;;8.35;3.22;;;18.10;99.90;;;;;;6187992;23;20091;-90
2023/05/25 11:49:46;;;;;;;8.02;3.10;;;18.20;99.90;;;;;;6187829;23;20439;-90
2023/05/25 11:52:20;;;;;;;9.95;2.90;;;18.20;99.90;;;;;;6188136;23;20450;-91
2023/05/25 11:54:46;;;;;;;6.68;2.53;;;18.20;99.90;;;;;;6163639;23;20024;-89
2023/05/25 11:57:17;;;;;;;8.10;3.13;;;18.30;99.90;;;;;;6138665;23;20056;-91
2023/05/25 11:59:56;;;;;;;5.40;2.50;;;18.40;99.90;;;;;;6189682;23;20479;-92
2023/05/25 12:02:23;;;;;;;7.55;2.55;;;18.40;99.90;;;;;;6188206;23;19997;-91
2023/05/25 12:05:07;;;;;;;6.10;2.80;;;18.50;99.90;;;;;;6139066;23;20005;-92
2023/05/25 12:07:34;;;;;;;11.95;3.25;;;18.50;99.90;;;;;;6187940;23;20024;-90
2023/05/25 12:10:17;;;;;;;10.90;3.08;;;18.50;99.90;;;;;;6162056;23;20005;-90
2023/05/25 12:12:50;;;;;;;7.60;2.92;;;18.60;99.90;;;;;;6139427;23;20071;-90
2023/05/25 12:15:21;;;;;;;8.43;2.95;;;18.60;99.90;;;;;;6197179;23;20001;-89
2023/05/25 12:17:47;;;;;;;8.00;2.85;;;18.60;99.90;;;;;;6190874;23;20009;-89
2023/05/25 12:20:15;;;;;;;7.22;2.53;;;18.70;99.90;;;;;;6189515;23;20004;-90
2023/05/25 12:22:42;;;;;;;9.20;3.72;;;18.70;99.90;;;;;;6187983;23;19997;-89
2023/05/25 12:25:12;;;;;;;8.82;3.15;;;18.70;99.90;;;;;;6186975;23;20040;-90
2023/05/25 12:27:39;;;;;;;5.80;3.00;;;18.80;99.90;;;;;;6188161;23;20001;-90
2023/05/25 12:30:08;;;;;;;7.65;3.15;;;18.80;99.90;;;;;;6187496;23;20431;-90
2023/05/25 12:32:53;;;;;;;8.35;3.05;;;18.80;99.90;;;;;;6189057;23;20009;-90
2023/05/25 12:35:19;;;;;;;12.30;3.40;;;18.90;99.90;;;;;;6187747;23;20055;-90
2023/05/25 12:37:47;;;;;;;10.20;3.40;;;18.90;99.90;;;;;;6185990;23;20411;-89
2023/05/25 12:40:19;;;;;;;12.40;3.35;;;18.90;99.90;;;;;;6187181;23;20005;-90
2023/05/25 12:42:47;;;;;;;10.40;3.25;;;18.90;99.90;;;;;;6137763;23;20012;-90
2023/05/25 12:45:13;;;;;;;9.52;3.10;;;18.90;99.90;;;;;;6186894;23;20016;-90
2023/05/25 12:47:46;;;;;;;9.85;3.20;;;18.90;99.90;;;;;;6187827;23;20084;-89
2023/05/25 12:50:13;;;;;;;9.05;3.47;;;19.00;99.90;;;;;;6188667;23;20427;-89
2023/05/25 12:52:41;;;;;;;9.27;3.00;;;19.00;99.90;;;;;;6187721;23;19997;-91
2023/05/25 12:55:30;;;;;;;9.27;3.10;;;19.10;99.90;;;;;;6187639;23;20347;-90
2023/05/25 12:57:57;;;;;;;8.13;3.17;;;19.10;99.90;;;;;;6188980;23;20068;-90
2023/05/25 13:00:35;;;;;;;9.93;3.05;;;19.20;99.90;;;;;;6187339;23;20493;-88
2023/05/25 13:03:01;;;;;;;9.50;2.78;;;19.20;99.90;;;;;;6187537;23;19997;-89
2023/05/25 13:05:33;;;;;;;8.40;2.90;;;19.20;99.90;;;;;;6188536;23;20051;-89
2023/05/25 13:08:03;;;;;;;9.13;3.40;;;19.20;99.90;;;;;;6162450;23;20040;-89
2023/05/25 13:10:31;;;;;;;10.07;3.67;;;19.30;99.90;;;;;;6189236;23;20064;-89
2023/05/25 13:12:58;;;;;;;13.25;3.35;;;19.30;99.90;;;;;;6189859;23;20041;-89
2023/05/25 13:15:25;;;;;;;7.97;3.30;;;19.30;99.90;;;;;;6188555;23;20012;-89
2023/05/25 13:17:51;;;;;;;11.52;3.42;;;19.30;99.90;;;;;;6187403;23;20005;-89
2023/05/25 13:20:19;;;;;;;9.82;3.80;;;19.30;99.90;;;;;;6186727;23;20439;-90
2023/05/25 13:22:51;;;;;;;9.40;3.33;;;19.40;99.90;;;;;;6186934;23;20011;-90
2023/05/25 13:25:18;;;;;;;10.32;3.20;;;19.40;99.90;;;;;;6187278;23;20009;-90
2023/05/25 13:27:45;;;;;;;8.20;3.25;;;19.40;99.90;;;;;;6189374;23;20083;-89
2023/05/25 13:30:12;;;;;;;11.60;3.15;;;19.50;99.90;;;;;;6203587;23;20288;-89
2023/05/25 13:32:38;;;;;;;13.88;3.28;;;19.50;99.90;;;;;;6199199;23;20128;-89
2023/05/25 13:35:06;;;;;;;10.05;3.58;;;19.50;99.90;;;;;;6213461;23;20012;-87
2023/05/25 13:37:34;;;;;;;8.80;3.13;;;19.60;99.90;;;;;;6213238;23;20016;-90
2023/05/25 13:39:59;;;;;;;9.40;3.20;;;19.60;99.90;;;;;;6163850;23;19996;-88
2023/05/25 13:42:28;;;;;;;10.23;3.58;;;19.60;99.90;;;;;;6188406;23;20001;-95
2023/05/25 13:44:54;;;;;;;9.38;3.33;;;19.60;99.90;;;;;;6213664;23;20028;-90
2023/05/25 13:47:20;;;;;;;8.50;2.75;;;19.60;99.90;;;;;;6210162;23;20013;-94
2023/05/25 13:49:51;;;;;;;7.43;2.92;;;19.70;99.90;;;;;;6205703;23;20025;-89
2023/05/25 13:52:17;;;;;;;8.27;2.90;;;19.70;99.90;;;;;;6197626;23;20032;-89
2023/05/25 13:54:43;;;;;;;9.10;3.03;;;19.80;99.90;;;;;;6137502;23;20427;-89
2023/05/25 13:57:08;;;;;;;13.00;3.45;;;19.80;99.90;;;;;;6186981;23;20005;-89
2023/05/25 13:59:34;;;;;;;16.48;3.78;;;19.80;99.90;;;;;;6187931;23;20040;-89
2023/05/25 14:02:00;;;;;;;10.40;3.33;;;19.80;99.90;;;;;;6186993;23;20375;-89
2023/05/25 14:04:26;;;;;;;9.73;3.40;;;19.80;99.90;;;;;;6186858;23;19997;-89
2023/05/25 14:06:52;;;;;;;11.07;3.20;;;19.80;99.90;;;;;;6161950;23;20056;-89
2023/05/25 14:09:18;;;;;;;9.18;3.28;;;19.80;99.90;;;;;;6137736;23;20005;-89
2023/05/25 14:11:43;;;;;;;15.50;3.53;;;19.90;99.90;;;;;;6161683;23;20241;-89
2023/05/25 14:14:09;;;;;;;14.32;3.33;;;19.90;99.90;;;;;;6138222;23;20483;-90
2023/05/25 14:16:35;;;;;;;10.25;3.40;;;19.90;99.90;;;;;;6188001;23;20005;-89
2023/05/25 14:19:03;;;;;;;8.65;3.28;;;20.00;99.90;;;;;;6189191;23;20327;-89
2023/05/25 14:21:29;;;;;;;10.25;3.17;;;20.00;99.90;;;;;;6200199;23;20001;-89
2023/05/25 14:23:58;;;;;;;8.63;3.08;;;20.00;99.90;;;;;;6212026;23;19986;-89
2023/05/25 14:26:25;;;;;;;16.05;2.95;;;20.00;99.90;;;;;;6163793;23;20001;-94
2023/05/25 14:28:52;;;;;;;12.88;4.28;;;20.10;99.90;;;;;;6212803;23;19997;-90
2023/05/25 14:31:18;;;;;;;12.77;3.60;;;20.10;99.90;;;;;;6184807;23;19997;-89
2023/05/25 14:33:47;;;;;;;10.50;3.40;;;20.20;99.90;;;;;;6157705;23;20017;-88
2023/05/25 14:36:13;;;;;;;13.00;3.88;;;20.20;99.90;;;;;;6181990;23;20033;-89
2023/05/25 14:38:39;;;;;;;13.35;4.03;;;20.20;99.90;;;;;;6204859;23;19985;-89
2023/05/25 14:41:07;;;;;;;13.63;3.85;;;20.20;99.90;;;;;;6141326;23;20001;-90
2023/05/25 14:43:35;;;;;;;10.35;3.65;;;20.30;99.90;;;;;;6167664;23;20001;-89
2023/05/25 14:46:01;;;;;;;17.40;4.53;;;20.30;99.90;;;;;;6155443;23;20017;-87
2023/05/25 14:48:30;;;;;;;11.82;3.60;;;20.30;99.90;;;;;;6192867;23;20086;-90
2023/05/25 14:50:57;;;;;;;14.95;4.07;;;20.30;99.90;;;;;;6190691;23;20024;-88
2023/05/25 14:53:28;;;;;;;13.57;4.30;;;20.40;99.90;;;;;;6189566;23;20009;-90
2023/05/25 14:55:57;;;;;;;15.23;3.92;;;20.40;99.90;;;;;;6138962;23;20017;-89
2023/05/25 14:58:22;;;;;;;14.80;4.10;;;20.30;99.90;;;;;;6137456;23;20056;-89
2023/05/25 15:00:51;;;;;;;14.68;4.15;;;20.30;99.90;;;;;;6186358;23;20001;-89
2023/05/25 15:03:17;;;;;;;13.77;4.15;;;20.30;99.90;;;;;;6186816;23;20001;-90
2023/05/25 15:05:43;;;;;;;13.10;3.75;;;20.30;99.90;;;;;;6137222;23;20340;-89
2023/05/25 15:08:09;;;;;;;17.95;3.70;;;20.40;99.90;;;;;;6187281;23;19997;-89
2023/05/25 15:10:35;;;;;;;16.40;4.70;;;20.50;99.90;;;;;;6162302;23;20009;-89
2023/05/25 15:13:01;;;;;;;14.27;3.78;;;20.50;99.90;;;;;;6189246;23;20296;-90
2023/05/25 15:15:29;;;;;;;13.02;3.70;;;20.50;99.90;;;;;;6137960;23;20005;-89
2023/05/25 15:17:58;;;;;;;12.70;3.83;;;20.60;99.90;;;;;;6188777;23;20430;-89
2023/05/25 15:20:25;;;;;;;14.73;3.90;;;20.60;99.90;;;;;;6188634;23;20005;-89
2023/05/25 15:22:52;;;;;;;13.90;3.58;;;20.60;99.90;;;;;;6188214;23;20001;-89
2023/05/25 15:25:20;;;;;;;12.98;3.60;;;20.70;99.90;;;;;;6187295;23;20017;-90
2023/05/25 15:27:48;;;;;;;16.10;3.53;;;20.70;99.90;;;;;;6189761;23;20442;-91
2023/05/25 15:30:14;;;;;;;14.32;3.80;;;20.70;99.60;;;;;;6163959;23;20051;-90
2023/05/25 15:32:40;;;;;;;12.70;4.53;;;20.80;99.50;;;;;;6187733;23;20080;-89
2023/05/25 15:35:06;;;;;;;14.55;4.05;;;20.80;99.40;;;;;;6188469;23;20001;-90
2023/05/25 15:37:32;;;;;;;12.18;3.40;;;20.80;99.30;;;;;;6187996;23;20001;-90
2023/05/25 15:39:57;;;;;;;17.00;3.88;;;20.90;99.40;;;;;;6189232;23;20312;-89
2023/05/25 15:42:37;;;;;;;16.33;3.85;;;20.90;99.30;;;;;;6137960;23;20033;-90
2023/05/25 15:45:05;;;;;;;15.30;4.38;;;21.00;99.20;;;;;;6137360;23;20075;-89
2023/05/25 15:47:31;;;;;;;17.00;4.03;;;21.00;98.90;;;;;;6186270;23;20427;-89
2023/05/25 15:49:57;;;;;;;13.68;4.65;;;21.00;98.60;;;;;;6186442;23;20010;-89
2023/05/25 15:52:23;;;;;;;13.75;3.63;;;21.10;98.40;;;;;;6185982;23;20008;-89
2023/05/25 15:54:51;;;;;;;16.90;4.68;;;21.10;98.10;;;;;;6186934;23;20001;-89
2023/05/25 15:57:17;;;;;;;11.95;3.63;;;21.20;97.70;;;;;;6186311;23;20436;-90
2023/05/25 15:59:43;;;;;;;16.95;4.28;;;21.20;97.20;;;;;;6192424;23;20024;-85
2023/05/25 16:02:09;;;;;;;14.40;4.55;;;21.20;96.90;;;;;;6204074;23;20025;-86
2023/05/25 16:04:34;;;;;;;15.88;4.20;;;21.20;96.80;;;;;;6164847;23;20005;-85
2023/05/25 16:07:00;;;;;;;15.65;3.90;;;21.30;96.60;;;;;;6143806;23;20013;-84
2023/05/25 16:09:26;;;;;;;12.95;4.07;;;21.30;96.60;;;;;;6164264;23;20010;-85
2023/05/25 16:11:51;;;;;;;23.42;4.40;;;21.30;96.30;;;;;;6187583;23;20001;-87
2023/05/25 16:14:17;;;;;;;15.60;4.00;;;21.40;96.20;;;;;;6162041;23;20005;-85
2023/05/25 16:16:43;;;;;;;15.73;4.15;;;21.40;96.10;;;;;;6187980;23;20076;-86
2023/05/25 16:19:08;;;;;;;17.98;4.57;;;21.40;96.00;;;;;;6161842;23;20001;-87
2023/05/25 16:21:34;;;;;;;17.20;4.60;;;21.50;95.80;;;;;;6188053;23;20005;-85
2023/05/25 16:24:00;;;;;;;21.27;4.80;;;21.60;95.80;;;;;;6162191;23;20005;-85
2023/05/25 16:26:26;;;;;;;15.00;4.05;;;21.60;95.40;;;;;;6162096;23;20009;-85
2023/05/25 16:28:51;;;;;;;14.52;4.20;;;21.70;95.20;;;;;;6162019;23;20011;-86
2023/05/25 16:31:17;;;;;;;15.32;4.45;;;21.70;95.10;;;;;;6138154;23;20009;-85
2023/05/25 16:33:44;;;;;;;13.00;3.80;;;21.80;94.90;;;;;;6162416;23;20001;-86
2023/05/25 16:36:12;;;;;;;18.25;4.43;;;21.80;94.50;;;;;;6162541;23;20416;-85
2023/05/25 16:38:38;;;;;;;14.63;4.40;;;21.90;94.40;;;;;;6137931;23;20009;-87
2023/05/25 16:41:03;;;;;;;19.27;4.63;;;22.00;94.30;;;;;;6188575;23;20001;-86
2023/05/25 16:43:29;;;;;;;18.10;4.43;;;22.00;94.30;;;;;;6161526;23;20005;-85
2023/05/25 16:45:55;;;;;;;15.60;4.45;;;22.00;94.00;;;;;;6188490;23;20005;-86
2023/05/25 16:48:20;;;;;;;16.48;4.28;;;22.10;93.50;;;;;;6164642;23;20005;-86
2023/05/25 16:50:46;;;;;;;13.25;4.07;;;22.10;93.10;;;;;;6161483;23;20029;-87
2023/05/25 16:53:12;;;;;;;15.15;4.40;;;22.10;92.90;;;;;;6164068;23;20404;-86
2023/05/25 16:55:38;;;;;;;18.77;5.05;;;22.20;92.70;;;;;;6162399;23;20044;-86
2023/05/25 16:58:06;;;;;;;20.50;5.00;;;22.20;92.40;;;;;;6190749;23;20013;-89
2023/05/25 17:00:32;;;;;;;17.77;4.45;;;22.30;92.10;;;;;;6188878;23;20013;-79
2023/05/25 17:02:57;;;;;;;16.40;3.92;;;22.30;91.80;;;;;;6187249;23;20005;-80
2023/05/25 17:05:26;;;;;;;15.90;4.95;;;22.30;91.70;;;;;;6138378;23;20092;-85
2023/05/25 17:07:54;;;;;;;15.75;4.00;;;22.30;91.60;;;;;;6161634;23;20001;-86
2023/05/25 17:10:25;;;;;;;16.45;4.55;;;22.30;91.60;;;;;;6164723;23;20008;-86
2023/05/25 17:13:04;;;;;;;16.08;4.63;;;22.30;91.20;;;;;;6190714;23;20075;-85
2023/05/25 17:15:32;;;;;;;19.05;5.03;;;22.30;90.90;;;;;;6154611;23;20013;-86
2023/05/25 17:18:03;;;;;;;18.10;4.15;;;22.30;90.80;;;;;;6202414;23;20001;-85
2023/05/25 17:20:31;;;;;;;19.60;5.18;;;22.30;91.00;;;;;;6178059;23;20015;-86
2023/05/25 17:22:57;;;;;;;16.50;4.55;;;22.20;90.80;;;;;;6200927;23;20323;-86
2023/05/25 17:25:22;;;;;;;15.70;4.70;;;22.20;90.50;;;;;;6172536;23;20040;-86
2023/05/25 17:27:48;;;;;;;15.45;4.15;;;22.20;90.50;;;;;;6172683;23;20001;-85
2023/05/25 17:30:14;;;;;;;18.25;5.38;;;22.00;90.70;;;;;;6166266;23;20467;-86
2023/05/25 17:32:43;;;;;;;15.77;4.50;;;22.00;90.40;;;;;;6163960;23;20006;-84
2023/05/25 17:35:09;;;;;;;16.58;4.78;;;21.90;90.40;;;;;;6185888;23;20316;-87
2023/05/25 17:40:57;;;;;;;20.35;5.15;;;21.70;90.10;;;;;;6188726;23;20040;-83
2023/05/25 17:43:22;;;;;;;18.23;5.10;;;21.50;90.20;;;;;;6160167;23;20415;-80
2023/05/25 17:45:51;;;;;;;15.18;4.30;;;21.40;90.30;;;;;;6186315;23;20017;-91
2023/05/25 17:48:27;;;;;;;;;;;;;;;;;;;;;
2023/05/25 17:50:53;;;;;;;17.33;4.55;;;21.20;90.40;;;;;;6186879;23;20096;-82